Search for airport 
image banner adimage banner adimage banner ad
image banner ad

N35 - Punxsutawney Muni

Located in Punxsutawney, United States

ICAO - N35, IATA -

Data provided by Airmate  

General information

Coordinates: N40°57'60" W78°55'48"
Elevation is 1439 feet MSL.
Magnetic variation is -10° East
View others Airports in Pennsylvania

Operational data

Special qualification required
Current time UTC:
Current local time:
Weather at : KDUJ - Dubois Rgnl ( 24 km )
METAR: KDUJ 091253Z AUTO 14003KT 10SM SCT085 BKN110 05/02 A3003 RMK AO2 SLP179 T00500017
TAF: KDUJ 091120Z 0912/1012 14003KT P6SM VCSH BKN080 FM091500 14007KT 5SM -RA BR OVC010 FM091700 08010KT 3SM RA BR OVC005 FM100000 02008KT 4SM -RA BR OVC005 FM100500 36004KT P6SM BKN006 FM101000 29005KT P6SM BKN010
View NOTAMs / SUP AIP / TFR affecting this airport [VIEW]
Communications frequencies: [VIEW]

Runways:

RWY identifierQFULength (ft)Width (ft)SurfaceLDA (ft)
01358°2026100GRASS
19178°2026100GRASS
0657°300350ASPH
24237°300350ASPH

Airport contact information

Address: Punxsutawney United States

Other aviation service providers

Flight schools

Center Line Aviation, Ltd.

Center Line Aviation, Ltd.
ka3cuy@windstream.net+1(814)590-9256

Satellite view of N35